Details From EDDM - Muenchen Franz-josef Strauss
To GCGM - La Gomera
Flight Number -
Tags Generated
Created
Modified
Stats Distance 1,813 nm / 3,358 km
Max Altitude 0 ft / 0 m
Waypoints 8
Social Downloads 0
Likes 0
Share VATSIM

Download

Looking for another format? Having issues loading an existing format? Contact us
Advertisement - Login to hide

Notes

Generated

Route

EDDM SANET ADEVA R2506 RUSEM OBOLO LGM GCGM

ID Type Via Altitude Latitude Longitude Leg Dist Tot Dist Heading (true) Name
O EDDM APT - 0 ft / 0 m 48.34069˚ 11.75108˚ - 0 nm - -
SANET FIX - 0 ft / 0 m 46.33194˚ 7.27556˚ 218 nm 218 nm 238° / 235° -
ADEVA FIX - 0 ft / 0 m 44.25000˚ 3.26167˚ 210 nm 429 nm 235° / 232° -
R2506 FIX - 0 ft / 0 m 41.65539˚ -1.00832˚ 243 nm 672 nm 232° / 229° -
RUSEM FIX - 0 ft / 0 m 39.00000˚ -4.84694˚ 237 nm 910 nm 229° / 227° -
OBOLO FIX - 0 ft / 0 m 36.53139˚ -8.13250˚ 215 nm 1125 nm 227° / 225° -
LGM VOR - 0 ft / 0 m 28.02874˚ -17.21487˚ 687 nm 1812 nm 225° / 220° LA GOMERA VOR-DME
O GCGM APT - 0 ft / 0 m 28.02859˚ -17.22214˚ 0 nm 1813 nm 269° / 269° -

Altitude Profile

Advertisement - Login to hide

Weather


0- 5 10 15 20 25 30 35+ Temperature / ° C

Clouds and Precipitation
Forecast for 2017-12-16 18:00 UTC. Updated 2 hours ago

Ground ~20,000 ft ~40,000 ft Winds

EDDM

Details ICAO EDDM (MUC)
Name Muenchen Franz-Josef Strauss
Region Germany - Civil
Timezone Europe/Berlin (UTC+1.0)
Stats Elevation 1,487 ft / 453 m (AMSL)
Location 48.353786° 11.786117°
Runways 2
Magnetic Variation 3.162° E

METAR

EDDM 161820Z 25010KT 9999 -SHSN FEW009TCU BKN060 01/M01 Q1014 TEMPO 3000 SHSN BKN008

Decode

TAF

TAF EDDM 161700Z 1618/1724 27007KT 9999 FEW008 BKN020 PROB40 TEMPO 1618/1717 2500 -SHSN BKN008TCU PROB30 TEMPO 1618/1620 1400 SHSN VV004 PROB30 TEMPO 1709/1714 28012KT 1400 SHSN VV004 BKN006TCU

Decode

Departure Runways

ID Width Length Bearing (true) Bearing (mag) Surface Threshold Offset Overrun Length
08L 197 ft / 60 m 13,086 ft / 3,989 m 83.38° 80.22° Concrete 0 ft / 0 m 0 ft / 0 m
08R 197 ft / 60 m 13,086 ft / 3,989 m 83.37° 80.21° Concrete 0 ft / 0 m 0 ft / 0 m
26L 197 ft / 60 m 13,086 ft / 3,989 m 263.41° 260.25° Concrete 0 ft / 0 m 0 ft / 0 m
26R 197 ft / 60 m 13,086 ft / 3,989 m 263.42° 260.26° Concrete 0 ft / 0 m 0 ft / 0 m

GCGM

Details ICAO GCGM (GMZ)
Name La Gomera
Region Canary Islands
Timezone Atlantic/Canary (UTC+0.0)
Stats Elevation 715 ft / 218 m (AMSL)
Location 28.029627° -17.214603°
Runways 1
Magnetic Variation 5.359° W

METAR

GCGM 161830Z AUTO 26004KT 240V310 9999 NCD 20/16 Q1022 RMK R09/VRB01KT ARP/VRB01KT

Decode

TAF

TAF GCGM 161400Z 1615/1715 23010KT 9999 SCT035 TX21/1714Z TN18/1706Z BECMG 1620/1622 35011KT

Decode

Destination Runways

ID Width Length Bearing (true) Bearing (mag) Surface Threshold Offset Overrun Length
09 98 ft / 30 m 4,914 ft / 1,498 m 81.17° 86.53° Asphalt 0 ft / 0 m 0 ft / 0 m
27 98 ft / 30 m 4,914 ft / 1,498 m 261.18° 266.54° Asphalt 0 ft / 0 m 0 ft / 0 m